createdAt,value
2023-03-15T00:01:24.359Z,12.14
2023-03-15T00:06:27.609Z,12.05
2023-03-15T00:11:32.512Z,11.99
2023-03-15T00:16:36.067Z,11.83
2023-03-15T00:21:39.939Z,11.77
2023-03-15T00:26:44.716Z,11.94
2023-03-15T00:31:47.828Z,11.92
2023-03-15T00:36:53.724Z,11.92
2023-03-15T00:41:58.288Z,11.76
2023-03-15T00:47:01.399Z,11.74
2023-03-15T00:52:04.957Z,11.78
2023-03-15T00:57:09.589Z,11.69
2023-03-15T01:02:13.621Z,11.53
2023-03-15T01:07:16.741Z,11.47
2023-03-15T01:12:21.275Z,11.52
2023-03-15T01:17:24.421Z,11.64
2023-03-15T01:22:27.815Z,11.60
2023-03-15T01:27:32.361Z,11.34
2023-03-15T01:32:35.669Z,11.22
2023-03-15T01:37:38.837Z,11.03
2023-03-15T01:43:16.084Z,10.92
2023-03-15T01:48:19.885Z,10.73
2023-03-15T01:53:24.545Z,10.73
2023-03-15T01:58:30.483Z,10.87
2023-03-15T02:03:40.048Z,10.85
2023-03-15T02:08:48.059Z,10.68
2023-03-15T02:13:54.067Z,10.51
2023-03-15T02:18:57.213Z,10.49
2023-03-15T02:24:07.904Z,10.60
2023-03-15T02:29:13.061Z,10.51
2023-03-15T02:34:15.923Z,10.53
2023-03-15T02:39:21.968Z,10.66
2023-03-15T02:44:30.292Z,10.80
2023-03-15T02:49:38.921Z,10.69
2023-03-15T02:54:43.702Z,10.73
2023-03-15T02:59:51.013Z,10.64
2023-03-15T03:04:54.253Z,10.46
2023-03-15T03:09:57.397Z,10.25
2023-03-15T03:15:02.907Z,10.22
2023-03-15T03:20:08.167Z,10.16
2023-03-15T03:25:12.234Z,9.96
2023-03-15T03:30:17.285Z,9.74
2023-03-15T03:35:20.404Z,9.76
2023-03-15T03:40:23.605Z,9.71
2023-03-15T03:45:28.112Z,9.74
2023-03-15T03:50:31.916Z,9.53
2023-03-15T03:55:35.123Z,9.50
2023-03-15T04:00:39.761Z,9.55
2023-03-15T04:05:43.140Z,9.60
2023-03-15T04:10:46.264Z,9.49
2023-03-15T04:15:51.436Z,9.37
2023-03-15T04:20:55.436Z,9.24
2023-03-15T04:25:58.889Z,9.10
2023-03-15T04:31:03.501Z,9.19
2023-03-15T04:36:07.184Z,9.15
2023-03-15T04:41:11.357Z,9.14
2023-03-15T04:46:15.922Z,9.08
2023-03-15T04:51:19.111Z,9.17
2023-03-15T04:56:22.220Z,9.02
2023-03-15T05:01:30.804Z,9.03
2023-03-15T05:06:33.952Z,9.00
2023-03-15T05:11:37.066Z,9.04
2023-03-15T05:16:43.300Z,9.10
2023-03-15T05:21:46.452Z,9.22
2023-03-15T05:26:49.649Z,9.16
2023-03-15T05:31:54.256Z,9.12
2023-03-15T05:36:57.477Z,9.16
2023-03-15T05:42:00.631Z,9.11
2023-03-15T05:47:05.331Z,8.99
2023-03-15T05:52:08.472Z,8.98
2023-03-15T05:57:12.338Z,8.89
2023-03-15T06:02:16.974Z,8.80
2023-03-15T06:07:21.286Z,8.90
2023-03-15T06:12:24.467Z,8.74
2023-03-15T06:17:28.974Z,8.70
2023-03-15T06:22:32.085Z,8.76
2023-03-15T06:27:35.396Z,8.92
2023-03-15T06:32:39.952Z,9.06
2023-03-15T06:37:43.115Z,9.13
2023-03-15T06:42:46.261Z,9.16
2023-03-15T06:47:50.797Z,9.15
2023-03-15T06:52:53.893Z,9.20
2023-03-15T06:57:57.091Z,9.26
2023-03-15T07:03:01.634Z,9.23
2023-03-15T07:08:04.978Z,9.36
2023-03-15T07:13:09.366Z,9.44
2023-03-15T07:18:13.933Z,9.48
2023-03-15T07:23:17.136Z,9.54
2023-03-15T07:28:20.294Z,9.63
2023-03-15T07:33:26.473Z,9.83
2023-03-15T07:38:30.158Z,11.01
2023-03-15T07:43:33.434Z,11.96
2023-03-15T07:48:37.980Z,12.73
2023-03-15T07:53:41.192Z,13.34
2023-03-15T07:58:44.310Z,14.36
2023-03-15T08:03:48.918Z,14.49
2023-03-15T08:08:52.588Z,14.84
2023-03-15T08:13:55.693Z,15.24
2023-03-15T08:19:00.200Z,15.76
2023-03-15T08:24:03.546Z,16.41
2023-03-15T08:29:06.891Z,16.49
2023-03-15T08:34:12.253Z,16.43
2023-03-15T08:39:15.757Z,16.46
2023-03-15T08:44:19.139Z,17.47
2023-03-15T08:49:23.861Z,16.50
2023-03-15T08:54:27.708Z,16.47
2023-03-15T08:59:32.948Z,16.83
2023-03-15T09:04:37.536Z,17.61
2023-03-15T09:09:40.909Z,17.64
2023-03-15T09:14:44.436Z,18.35
2023-03-15T09:19:48.991Z,18.32
2023-03-15T09:24:52.743Z,18.44
2023-03-15T09:29:55.902Z,19.25
2023-03-15T09:35:00.446Z,19.49
2023-03-15T09:40:04.869Z,18.86
2023-03-15T09:45:16.278Z,19.71
2023-03-15T09:50:30.949Z,20.47
2023-03-15T09:55:34.345Z,20.67
2023-03-15T10:00:41.215Z,20.26
2023-03-15T10:05:49.045Z,20.03
2023-03-15T10:10:55.572Z,20.65
2023-03-15T10:16:12.558Z,20.02
2023-03-15T10:21:33.306Z,20.92
2023-03-15T10:26:41.374Z,20.27
2023-03-15T10:31:47.799Z,19.99
2023-03-15T10:36:55.538Z,19.97
2023-03-15T10:41:58.911Z,20.98
2023-03-15T10:47:21.478Z,21.08
2023-03-15T10:52:35.109Z,20.51
2023-03-15T10:57:41.063Z,21.18
2023-03-15T11:02:51.239Z,21.84
2023-03-15T11:08:00.943Z,21.96
2023-03-15T11:13:22.105Z,22.08
2023-03-15T11:18:31.055Z,22.41
2023-03-15T11:23:39.384Z,23.15
2023-03-15T11:28:49.622Z,23.29
2023-03-15T11:33:57.461Z,23.41
2023-03-15T11:39:04.681Z,23.47
2023-03-15T11:44:16.612Z,23.72
2023-03-15T11:49:28.797Z,23.62
2023-03-15T11:54:34.044Z,23.45
2023-03-15T12:04:45.583Z,23.42
2023-03-15T12:09:56.400Z,23.63
2023-03-15T12:15:07.238Z,24.21
2023-03-15T12:20:19.854Z,26.19
2023-03-15T12:25:33.860Z,25.37
2023-03-15T12:30:42.446Z,26.01
2023-03-15T12:35:46.288Z,25.44
2023-03-15T12:40:54.691Z,25.76
2023-03-15T12:45:58.271Z,25.42
2023-03-15T12:51:16.156Z,26.77
2023-03-15T12:56:32.852Z,25.39
2023-03-15T13:01:36.302Z,26.09
2023-03-15T13:06:52.975Z,26.06
2023-03-15T13:12:03.033Z,26.95
2023-03-15T13:17:17.374Z,26.40
2023-03-15T13:22:30.338Z,26.14
2023-03-15T13:27:51.377Z,26.61
2023-03-15T13:33:07.517Z,27.40
2023-03-15T13:38:24.486Z,27.32
2023-03-15T13:43:32.515Z,27.49
2023-03-15T13:48:37.411Z,29.04
2023-03-15T13:53:49.509Z,28.01
2023-03-15T13:58:54.715Z,28.09
2023-03-15T14:04:02.787Z,27.94
2023-03-15T14:09:11.776Z,27.90
2023-03-15T14:14:37.112Z,27.86
2023-03-15T14:19:40.234Z,27.99
2023-03-15T14:24:44.986Z,28.24
2023-03-15T14:29:51.904Z,27.68
2023-03-15T14:35:02.105Z,27.26
2023-03-15T14:40:21.060Z,27.73
2023-03-15T14:45:27.535Z,27.26
2023-03-15T14:50:35.700Z,27.24
2023-03-15T14:55:39.259Z,26.82
2023-03-15T15:00:45.234Z,27.00
2023-03-15T15:05:48.668Z,26.49
2023-03-15T15:10:54.000Z,27.09
2023-03-15T15:15:58.858Z,26.24
2023-03-15T15:21:03.963Z,25.95
2023-03-15T15:26:18.378Z,26.52
2023-03-15T15:31:25.209Z,26.37
2023-03-15T15:36:32.530Z,25.22
2023-03-15T15:41:35.979Z,24.68
2023-03-15T15:46:40.765Z,23.96
2023-03-15T15:51:46.952Z,23.71
2023-03-15T15:56:52.276Z,23.49
2023-03-15T16:02:01.039Z,23.50
2023-03-15T16:07:05.580Z,23.33
2023-03-15T16:12:14.824Z,23.27
2023-03-15T16:17:22.766Z,23.14
2023-03-15T16:22:27.201Z,22.84
2023-03-15T16:27:31.120Z,22.76
2023-03-15T16:32:43.994Z,22.71
2023-03-15T16:37:47.906Z,22.66
2023-03-15T16:42:51.286Z,22.64
2023-03-15T16:47:56.588Z,22.52
2023-03-15T16:53:02.846Z,22.54
2023-03-15T16:58:15.824Z,22.27
2023-03-15T17:03:21.362Z,22.38
2023-03-15T17:08:25.466Z,22.43
2023-03-15T17:13:31.962Z,22.42
2023-03-15T17:18:36.505Z,22.32
2023-03-15T17:23:39.668Z,22.38
2023-03-15T17:28:43.660Z,22.39
2023-03-15T17:33:48.575Z,22.30
2023-03-15T17:38:52.182Z,22.16
2023-03-15T17:43:55.339Z,21.93
2023-03-15T17:49:00.128Z,21.75
2023-03-15T17:54:03.680Z,21.38
2023-03-15T17:59:06.939Z,21.16
2023-03-15T18:04:13.142Z,20.83
2023-03-15T18:09:16.552Z,20.61
2023-03-15T18:14:19.728Z,20.42
2023-03-15T18:19:24.252Z,20.16
2023-03-15T18:24:27.105Z,19.81
2023-03-15T18:29:30.229Z,19.76
2023-03-15T18:34:34.943Z,19.55
2023-03-15T18:39:38.782Z,19.41
2023-03-15T18:44:43.967Z,19.29
2023-03-15T18:49:51.175Z,19.11
2023-03-15T18:54:56.468Z,18.93
2023-03-15T18:59:59.606Z,18.79
2023-03-15T19:05:04.135Z,18.76
2023-03-15T19:10:09.221Z,18.66
2023-03-15T19:15:15.348Z,18.56
2023-03-15T19:20:22.149Z,18.45
2023-03-15T19:25:25.402Z,18.28
2023-03-15T19:30:28.600Z,18.12
2023-03-15T19:35:33.679Z,17.94
2023-03-15T19:40:37.549Z,17.81
2023-03-15T19:45:40.683Z,17.73
2023-03-15T19:50:45.227Z,17.62
2023-03-15T19:55:48.348Z,17.49
2023-03-15T20:00:52.169Z,17.38
2023-03-15T20:05:56.739Z,17.32
2023-03-15T20:11:04.104Z,17.02
2023-03-15T20:16:08.290Z,17.03
2023-03-15T20:21:15.063Z,16.95
2023-03-15T20:26:19.039Z,17.01
2023-03-15T20:31:22.753Z,17.01
2023-03-15T20:36:28.162Z,16.94
2023-03-15T20:41:31.406Z,16.80
2023-03-15T20:46:34.829Z,16.49
2023-03-15T20:51:39.545Z,16.36
2023-03-15T20:56:42.800Z,16.06
2023-03-15T21:01:47.425Z,16.09
2023-03-15T21:06:52.128Z,16.08
2023-03-15T21:11:57.244Z,15.94
2023-03-15T21:17:02.055Z,15.85
2023-03-15T21:22:06.449Z,15.50
2023-03-15T21:27:11.637Z,15.60
2023-03-15T21:32:14.959Z,15.69
2023-03-15T21:37:20.812Z,15.62
2023-03-15T21:42:24.485Z,15.69
2023-03-15T21:47:27.836Z,15.34
2023-03-15T21:52:32.790Z,15.34
2023-03-15T21:57:35.748Z,15.15
2023-03-15T22:02:39.623Z,15.26
2023-03-15T22:07:44.843Z,15.18
2023-03-15T22:12:48.281Z,15.24
2023-03-15T22:17:51.906Z,14.92
2023-03-15T22:22:56.636Z,14.64
2023-03-15T22:28:00.121Z,14.60
2023-03-15T22:33:03.415Z,14.54
2023-03-15T22:38:10.223Z,14.68
2023-03-15T22:43:13.549Z,14.69
2023-03-15T22:48:16.696Z,14.42
2023-03-15T22:53:21.304Z,14.46
2023-03-15T22:58:24.760Z,14.38
2023-03-15T23:03:28.585Z,14.39
2023-03-15T23:08:33.111Z,14.14
2023-03-15T23:13:36.268Z,14.11
2023-03-15T23:18:39.733Z,14.07
2023-03-15T23:23:44.250Z,14.04
2023-03-15T23:28:47.905Z,13.83
2023-03-15T23:33:51.059Z,13.85
2023-03-15T23:38:55.582Z,13.84
2023-03-15T23:43:58.773Z,13.83
2023-03-15T23:49:01.906Z,13.77
2023-03-15T23:54:06.569Z,13.60
2023-03-15T23:59:09.733Z,13.61
